Time;durP1;ratioP1;P1;durP2;ratioP2;P2;SDS_P1;SDS_P2;PMS_P1;PMS_P2;Temp;Humidity;BMP_temperature;BMP_pressure;BME280_temperature;BME280_humidity;BME280_pressure;Samples;Min_cycle;Max_cycle;Signal;HPM_P1;HPM_P2
2021/01/29 00:00:23;;;;;;;12.57;6.70;;;;;;;-1.57;82.79;98493.91;1819862;77;25248;-72
2021/01/29 00:02:59;;;;;;;13.30;7.70;;;;;;;-1.55;82.98;98496.78;1880029;74;27465;-73
2021/01/29 00:05:31;;;;;;;13.07;7.57;;;;;;;-1.62;83.04;98479.93;1863488;76;25575;-72
2021/01/29 00:07:59;;;;;;;13.87;7.70;;;;;;;-1.62;83.12;98466.21;1863551;76;25195;-72
2021/01/29 00:10:28;;;;;;;12.53;6.40;;;;;;;-1.63;83.22;98467.93;1863567;77;25199;-71
2021/01/29 00:12:55;;;;;;;11.57;7.07;;;;;;;-1.70;83.21;98468.67;1863476;76;25241;-72
2021/01/29 00:15:22;;;;;;;13.07;7.23;;;;;;;-1.72;83.21;98471.78;1853244;77;25709;-71
2021/01/29 00:17:49;;;;;;;12.73;7.83;;;;;;;-1.73;83.41;98465.40;1863724;77;25246;-71
2021/01/29 00:20:20;;;;;;;12.67;7.57;;;;;;;-1.75;83.41;98465.47;1793270;79;25698;-72
2021/01/29 00:22:47;;;;;;;13.53;7.93;;;;;;;-1.71;83.49;98464.87;1795780;78;25673;-72
2021/01/29 00:25:21;;;;;;;12.50;6.43;;;;;;;-1.68;83.49;98473.76;1825791;78;25202;-72
2021/01/29 00:27:56;;;;;;;11.67;6.90;;;;;;;-1.62;83.33;98470.08;1835803;77;26961;-73
2021/01/29 00:30:23;;;;;;;14.37;7.97;;;;;;;-1.69;83.28;98465.66;1776275;80;25699;-72
2021/01/29 00:32:50;;;;;;;14.97;8.47;;;;;;;-1.69;83.11;98481.12;1792360;80;25675;-71
2021/01/29 00:35:17;;;;;;;15.73;8.57;;;;;;;-1.69;82.93;98472.93;1786989;80;25736;-72
2021/01/29 00:37:45;;;;;;;13.37;7.00;;;;;;;-1.74;83.05;98475.34;1778501;80;25225;-72
2021/01/29 00:40:12;;;;;;;15.33;8.10;;;;;;;-1.75;83.02;98472.38;1787162;80;25367;-72
2021/01/29 00:42:38;;;;;;;13.17;7.33;;;;;;;-1.74;82.99;98476.64;1767270;80;25247;-71
2021/01/29 00:45:07;;;;;;;9.90;6.37;;;;;;;-1.76;83.08;98478.42;1763459;80;25291;-72
2021/01/29 00:47:34;;;;;;;13.13;6.10;;;;;;;-1.76;83.15;98484.87;1747711;80;25253;-71
2021/01/29 00:50:04;;;;;;;12.43;6.57;;;;;;;-1.77;83.24;98498.22;1783517;80;25726;-72
2021/01/29 00:52:38;;;;;;;12.13;6.90;;;;;;;-1.70;83.32;98500.06;1849901;76;26772;-72
2021/01/29 00:55:07;;;;;;;14.13;6.90;;;;;;;-1.78;83.26;98505.56;1819966;78;25294;-72
2021/01/29 00:57:36;;;;;;;11.63;6.70;;;;;;;-1.79;83.34;98517.23;1819632;77;25605;-72
2021/01/29 01:00:28;;;;;;;11.87;7.20;;;;;;;-1.75;83.34;98491.71;1818498;78;27279;-72
2021/01/29 01:02:57;;;;;;;13.17;7.27;;;;;;;-1.85;83.34;98481.44;1789615;79;25258;-73
2021/01/29 01:05:25;;;;;;;12.57;6.93;;;;;;;-1.82;83.49;98482.13;1789603;80;25289;-73
2021/01/29 01:07:52;;;;;;;9.53;5.87;;;;;;;-1.84;83.52;98482.66;1788282;80;25250;-73
2021/01/29 01:10:37;;;;;;;10.97;6.60;;;;;;;-1.84;83.49;98495.98;1775644;80;25384;-72
2021/01/29 01:13:14;;;;;;;14.87;7.10;;;;;;;-1.78;83.47;98503.44;1877206;75;27434;-71
2021/01/29 01:15:43;;;;;;;10.27;6.47;;;;;;;-1.87;83.40;98496.97;1847932;77;25670;-71
2021/01/29 01:18:09;;;;;;;8.90;5.93;;;;;;;-1.88;83.43;98495.28;1824957;77;25280;-72
2021/01/29 01:20:55;;;;;;;9.60;5.53;;;;;;;-1.82;83.19;98476.15;1803211;77;26914;-72
2021/01/29 01:23:22;;;;;;;10.37;5.70;;;;;;;-1.92;83.27;98491.19;1757331;80;25325;-72
2021/01/29 01:25:49;;;;;;;7.97;4.97;;;;;;;-1.91;83.28;98494.98;1767183;79;25207;-72
2021/01/29 01:28:24;;;;;;;7.97;4.93;;;;;;;-1.91;83.37;98498.85;1735853;80;25225;-72
2021/01/29 01:30:52;;;;;;;8.13;4.37;;;;;;;-1.90;83.38;98494.06;1726794;82;25257;-72
2021/01/29 01:33:20;;;;;;;7.90;4.57;;;;;;;-1.87;83.38;98496.51;1727089;81;25136;-72
2021/01/29 01:36:06;;;;;;;7.53;4.63;;;;;;;-1.78;83.30;98497.83;1735661;81;25266;-73
2021/01/29 01:38:34;;;;;;;8.53;5.60;;;;;;;-1.74;83.10;98503.70;1747688;80;25282;-73
2021/01/29 01:41:02;;;;;;;8.43;4.90;;;;;;;-1.74;83.08;98495.51;1757204;80;25266;-72
2021/01/29 01:43:31;;;;;;;7.97;5.10;;;;;;;-1.73;82.93;98496.33;1750959;81;25262;-72
2021/01/29 01:46:15;;;;;;;8.23;4.70;;;;;;;-1.65;82.80;98488.27;1800988;78;26925;-72
2021/01/29 01:48:54;;;;;;;7.70;4.00;;;;;;;-1.69;82.55;98495.30;1755816;81;25698;-72
2021/01/29 01:51:47;;;;;;;7.07;3.67;;;;;;;-1.66;82.45;98481.42;1763879;80;25709;-71
2021/01/29 01:54:25;;;;;;;6.23;3.53;;;;;;;-1.68;82.31;98489.23;1757747;81;25749;-71
2021/01/29 01:56:54;;;;;;;7.20;3.60;;;;;;;-1.65;82.07;98485.69;1727656;82;25710;-71
2021/01/29 01:59:49;;;;;;;4.37;3.00;;;;;;;-1.62;81.93;98476.52;1849904;76;27390;-71
2021/01/29 02:02:19;;;;;;;6.30;3.40;;;;;;;-1.70;81.87;98491.87;1819352;77;25235;-71
2021/01/29 02:04:56;;;;;;;5.53;3.40;;;;;;;-1.63;81.86;98489.84;1844180;76;26843;-71
2021/01/29 02:07:55;;;;;;;5.30;3.13;;;;;;;-1.69;81.79;98490.15;1810714;77;25243;-72
2021/01/29 02:10:41;;;;;;;5.30;3.43;;;;;;;-1.72;81.91;98480.80;1804193;77;25280;-72
2021/01/29 02:13:10;;;;;;;3.70;2.83;;;;;;;-1.73;81.91;98471.38;1816684;78;25283;-73
2021/01/29 02:15:42;;;;;;;6.57;3.60;;;;;;;-1.72;81.90;98469.66;1819920;77;25911;-72
2021/01/29 02:18:59;;;;;;;5.53;3.43;;;;;;;-1.69;82.06;98463.91;1879015;75;27473;-71
2021/01/29 02:21:59;;;;;;;4.73;3.03;;;;;;;-1.75;82.11;98473.20;1825493;78;25605;-71
2021/01/29 02:25:34;;;;;;;5.23;3.10;;;;;;;-1.73;81.64;98472.67;1838735;77;25186;-72
2021/01/29 02:28:03;;;;;;;5.90;3.30;;;;;;;-1.78;81.71;98481.53;1852634;77;25268;-72
2021/01/29 02:30:56;;;;;;;5.27;3.10;;;;;;;-1.80;81.53;98489.33;1828416;77;25201;-72
2021/01/29 02:33:53;;;;;;;5.23;3.10;;;;;;;-1.80;81.64;98483.35;1854375;77;25074;-72
2021/01/29 02:36:51;;;;;;;5.17;2.60;;;;;;;-1.83;81.59;98493.34;1823121;77;25288;-72
2021/01/29 02:39:34;;;;;;;4.10;2.93;;;;;;;-1.88;81.86;98484.97;1800642;78;27577;-73
2021/01/29 02:42:10;;;;;;;4.27;2.90;;;;;;;-1.93;81.68;98483.92;1789620;79;25307;-73
2021/01/29 02:45:31;;;;;;;4.33;2.90;;;;;;;-1.90;81.68;98482.47;1850001;76;26776;-72
2021/01/29 02:48:16;;;;;;;5.33;2.80;;;;;;;-1.98;81.69;98478.10;1802036;77;25277;-72
2021/01/29 02:51:16;;;;;;;5.30;3.00;;;;;;;-1.97;81.78;98472.52;1830116;76;27406;-72
2021/01/29 02:54:27;;;;;;;5.40;3.23;;;;;;;-2.00;81.79;98473.48;1810832;77;27533;-73
2021/01/29 02:57:12;;;;;;;5.97;3.47;;;;;;;-2.05;81.87;98467.70;1849978;76;26810;-73
2021/01/29 03:00:15;;;;;;;6.80;2.93;;;;;;;-2.10;81.85;98468.36;1831315;76;26920;-73
2021/01/29 03:03:02;;;;;;;5.00;2.70;;;;;;;-2.19;81.97;98476.51;1787534;80;25293;-72
2021/01/29 03:05:52;;;;;;;6.23;3.47;;;;;;;-2.22;82.34;98476.64;1849975;76;26883;-73
2021/01/29 03:08:23;;;;;;;6.00;3.67;;;;;;;-2.29;82.15;98471.75;1788235;78;25717;-73
2021/01/29 03:11:15;;;;;;;7.03;3.97;;;;;;;-2.31;82.28;98477.88;1819547;78;25239;-72
2021/01/29 03:14:20;;;;;;;6.50;3.20;;;;;;;-2.34;82.33;98482.70;1819870;78;25314;-72
2021/01/29 03:17:25;;;;;;;6.23;3.40;;;;;;;-2.45;82.52;98462.58;1819905;78;25586;-73
2021/01/29 03:20:25;;;;;;;4.13;2.53;;;;;;;-2.45;82.52;98462.58;1820092;77;25349;-73
2021/01/29 03:23:38;;;;;;;4.67;2.40;;;;;;;-2.29;82.67;98481.22;1850040;76;26889;-73
2021/01/29 03:26:35;;;;;;;4.27;2.73;;;;;;;-2.34;82.72;98485.27;1819889;77;25609;-73
2021/01/29 03:29:21;;;;;;;4.73;3.00;;;;;;;-2.38;82.65;98485.04;1778280;79;25208;-73
2021/01/29 03:32:06;;;;;;;3.57;2.70;;;;;;;-2.38;82.65;98485.04;1777465;79;25301;-73
2021/01/29 03:35:17;;;;;;;3.80;2.60;;;;;;;-2.40;82.71;98484.24;1778280;79;25250;-73
2021/01/29 03:38:22;;;;;;;4.60;2.50;;;;;;;-2.39;82.77;98478.20;1787530;79;25725;-72
2021/01/29 03:41:22;;;;;;;4.67;3.00;;;;;;;-2.55;82.87;98465.59;1766671;80;25343;-72
2021/01/29 03:44:40;;;;;;;3.50;2.40;;;;;;;-2.55;82.87;98465.59;1756533;80;25633;-73
2021/01/29 03:47:40;;;;;;;3.67;2.57;;;;;;;-2.51;82.81;98465.87;1756477;81;25212;-73
2021/01/29 03:50:51;;;;;;;7.63;3.23;;;;;;;-2.55;82.73;98467.71;1756605;80;25256;-73
2021/01/29 03:53:47;;;;;;;4.33;2.93;;;;;;;-2.56;82.91;98459.62;1756351;80;26004;-71
2021/01/29 03:57:01;;;;;;;4.30;3.20;;;;;;;-2.57;83.07;98460.97;1733069;80;25633;-73
2021/01/29 04:00:48;;;;;;;4.97;3.10;;;;;;;-2.52;83.19;98461.14;1818497;78;26859;-72
2021/01/29 04:03:38;;;;;;;3.93;2.80;;;;;;;-2.53;83.20;98467.64;1724792;80;25350;-72
2021/01/29 04:06:28;;;;;;;4.60;2.70;;;;;;;-2.56;83.16;98447.17;1761492;81;25266;-73
2021/01/29 04:09:30;;;;;;;4.90;2.57;;;;;;;-2.52;83.16;98447.45;1849357;75;26811;-74
2021/01/29 04:12:19;;;;;;;5.17;2.97;;;;;;;-2.58;83.27;98452.84;1801511;78;25309;-74
2021/01/29 04:15:11;;;;;;;5.70;2.97;;;;;;;-2.58;83.27;98452.84;1787296;79;25214;-73
2021/01/29 04:17:52;;;;;;;5.87;3.00;;;;;;;-2.61;83.26;98459.81;1787563;79;25317;-73
2021/01/29 04:20:33;;;;;;;5.93;3.20;;;;;;;-2.62;83.38;98455.55;1787516;79;25289;-73
2021/01/29 04:23:01;;;;;;;4.10;3.07;;;;;;;-2.64;83.63;98456.07;1795019;78;25303;-73
2021/01/29 04:25:32;;;;;;;6.37;3.17;;;;;;;-2.63;83.61;98453.89;1805514;77;25171;-74
2021/01/29 04:28:10;;;;;;;4.27;2.70;;;;;;;-2.63;83.78;98460.33;1788522;78;25192;-74
2021/01/29 04:30:38;;;;;;;6.27;3.33;;;;;;;-2.72;84.17;98440.58;1819999;77;25193;-73
2021/01/29 04:33:10;;;;;;;5.37;3.07;;;;;;;-2.61;84.17;98457.70;1788767;78;25183;-74
2021/01/29 04:35:38;;;;;;;5.77;3.27;;;;;;;-2.58;84.42;98461.86;1807720;78;25682;-73
2021/01/29 04:38:17;;;;;;;4.43;2.90;;;;;;;-2.55;84.52;98450.15;1812147;77;25054;-73
2021/01/29 04:40:51;;;;;;;4.17;2.60;;;;;;;-2.58;84.49;98456.71;1796324;77;25270;-73
2021/01/29 04:43:26;;;;;;;4.10;2.47;;;;;;;-2.44;84.62;98463.41;1779179;78;25067;-72
2021/01/29 04:46:27;;;;;;;6.17;2.97;;;;;;;-2.39;84.62;98470.48;1798492;77;25613;-73
2021/01/29 04:49:23;;;;;;;4.97;3.10;;;;;;;-2.38;84.49;98468.30;1787691;79;25242;-73
2021/01/29 04:52:16;;;;;;;5.40;3.00;;;;;;;-2.32;84.52;98470.58;1787619;80;25111;-72
2021/01/29 04:55:26;;;;;;;5.63;2.87;;;;;;;-2.27;84.44;98466.06;1787596;80;25337;-73
2021/01/29 04:58:22;;;;;;;5.77;3.33;;;;;;;-2.20;84.35;98470.50;1787515;79;25663;-73
2021/01/29 05:01:24;;;;;;;4.80;3.03;;;;;;;-2.17;84.31;98459.23;1803932;78;25188;-74
2021/01/29 05:04:40;;;;;;;5.53;3.43;;;;;;;-2.09;84.33;98451.55;1818422;78;27520;-73
2021/01/29 05:08:09;;;;;;;7.33;3.50;;;;;;;-2.14;84.37;98452.20;1789644;80;25257;-73
2021/01/29 05:11:32;;;;;;;5.43;3.40;;;;;;;-2.07;84.29;98445.03;1835178;76;26822;-72
2021/01/29 05:14:32;;;;;;;5.03;3.30;;;;;;;-2.09;84.27;98457.16;1820027;77;25033;-75
2021/01/29 05:17:20;;;;;;;4.43;3.10;;;;;;;-2.06;84.32;98453.16;1808906;78;25313;-73
2021/01/29 05:20:16;;;;;;;6.17;2.90;;;;;;;-2.08;84.37;98452.38;1797210;77;25703;-73
2021/01/29 05:23:06;;;;;;;5.37;3.03;;;;;;;-2.09;84.44;98448.14;1819046;78;25262;-71
2021/01/29 05:26:13;;;;;;;5.30;3.17;;;;;;;-2.07;84.49;98443.75;1819894;77;25259;-72
2021/01/29 05:29:04;;;;;;;4.17;2.80;;;;;;;-2.04;84.51;98444.91;1794949;78;25194;-74
2021/01/29 05:32:00;;;;;;;4.63;2.87;;;;;;;-2.02;84.51;98429.38;1787623;79;25603;-73
2021/01/29 05:35:09;;;;;;;5.23;3.20;;;;;;;-2.00;84.47;98427.09;1804924;77;26825;-73
2021/01/29 05:38:11;;;;;;;4.93;3.10;;;;;;;-2.06;84.51;98433.84;1757236;80;25338;-73
2021/01/29 05:41:11;;;;;;;5.17;3.27;;;;;;;-2.06;84.54;98434.66;1756797;81;25341;-73
2021/01/29 05:44:33;;;;;;;5.70;3.17;;;;;;;-2.05;84.57;98429.05;1759630;80;25752;-73
2021/01/29 05:47:44;;;;;;;5.87;3.07;;;;;;;-2.06;84.51;98424.82;1778131;79;25635;-73
2021/01/29 05:50:35;;;;;;;6.07;3.73;;;;;;;-2.09;84.55;98416.77;1788579;79;25272;-73
2021/01/29 05:53:40;;;;;;;4.80;3.53;;;;;;;-2.07;84.49;98419.27;1788652;80;25694;-73
2021/01/29 05:56:31;;;;;;;7.73;4.00;;;;;;;-2.10;84.57;98421.52;1788605;79;25323;-72
2021/01/29 05:59:25;;;;;;;7.60;4.20;;;;;;;-2.08;84.68;98424.89;1884068;75;27010;-72
2021/01/29 06:02:25;;;;;;;5.20;3.60;;;;;;;-2.11;84.72;98419.87;1881340;75;25578;-74
2021/01/29 06:05:12;;;;;;;7.20;3.83;;;;;;;-2.12;84.84;98416.89;1895376;75;25190;-72
2021/01/29 06:08:32;;;;;;;5.87;3.77;;;;;;;-2.13;84.87;98409.23;1826551;75;26884;-72
2021/01/29 06:11:39;;;;;;;5.47;3.67;;;;;;;-2.16;85.02;98414.09;1800864;78;25204;-73
2021/01/29 06:14:48;;;;;;;5.43;3.10;;;;;;;-2.19;84.93;98416.80;1787619;78;25204;-73
2021/01/29 06:17:55;;;;;;;7.10;3.80;;;;;;;-2.18;85.03;98418.91;1787476;78;25272;-73
2021/01/29 06:21:18;;;;;;;7.17;3.73;;;;;;;-2.24;85.08;98414.42;1792807;78;25320;-73
2021/01/29 06:24:15;;;;;;;5.40;3.30;;;;;;;-2.23;85.13;98415.25;1814575;77;25297;-73
2021/01/29 06:26:47;;;;;;;8.17;3.80;;;;;;;-2.25;85.17;98406.30;1801860;78;25238;-73
2021/01/29 06:30:04;;;;;;;6.00;3.10;;;;;;;-2.19;85.31;98407.78;1779612;79;25305;-73
2021/01/29 06:33:00;;;;;;;6.43;3.67;;;;;;;-2.25;85.30;98399.03;1756412;80;25658;-74
2021/01/29 06:35:43;;;;;;;7.23;3.77;;;;;;;-2.26;85.51;98403.36;1783464;80;25245;-73
2021/01/29 06:38:32;;;;;;;7.60;3.30;;;;;;;-2.17;85.36;98402.10;1810568;78;27009;-73
2021/01/29 06:41:27;;;;;;;8.30;4.33;;;;;;;-2.23;85.31;98403.66;1777218;79;25226;-73
2021/01/29 06:44:18;;;;;;;6.23;3.97;;;;;;;-2.18;85.34;98396.55;1767711;79;25354;-73
2021/01/29 06:47:08;;;;;;;6.20;3.57;;;;;;;-2.18;85.37;98393.16;1766788;79;25334;-72
2021/01/29 06:50:05;;;;;;;5.50;3.60;;;;;;;-2.18;85.42;98391.41;1767090;80;25211;-73
2021/01/29 06:53:16;;;;;;;8.60;4.17;;;;;;;-2.19;85.48;98388.92;1767579;81;25262;-74
2021/01/29 06:55:51;;;;;;;6.83;4.17;;;;;;;-2.19;85.39;98390.22;1767674;79;25561;-74
2021/01/29 06:59:00;;;;;;;6.53;3.97;;;;;;;-2.19;85.37;98379.91;1767457;81;25251;-73
2021/01/29 07:01:48;;;;;;;11.27;4.93;;;;;;;-2.20;85.33;98382.09;1767512;81;25218;-73
2021/01/29 07:05:20;;;;;;;12.40;5.90;;;;;;;-2.16;85.42;98379.31;1808992;78;27453;-74
2021/01/29 07:08:23;;;;;;;7.90;4.70;;;;;;;-2.22;85.49;98378.76;1758287;81;25296;-72
2021/01/29 07:11:47;;;;;;;6.37;3.80;;;;;;;-2.13;85.52;98374.02;1838694;76;26873;-74
2021/01/29 07:14:47;;;;;;;8.07;4.67;;;;;;;-2.13;85.49;98374.45;1787734;79;25315;-73
2021/01/29 07:17:53;;;;;;;14.23;7.80;;;;;;;-2.05;85.55;98373.19;1758041;80;26528;-73
2021/01/29 07:20:42;;;;;;;15.67;7.97;;;;;;;-1.97;85.55;98366.41;1811724;77;25793;-74
2021/01/29 07:23:41;;;;;;;13.90;8.40;;;;;;;-1.87;85.55;98355.22;1787761;80;25186;-74
2021/01/29 07:26:35;;;;;;;17.33;9.73;;;;;;;-1.76;85.48;98350.83;1787633;79;25723;-74
2021/01/29 07:29:42;;;;;;;14.37;7.67;;;;;;;-1.68;85.50;98355.16;1766772;80;25258;-74
2021/01/29 07:32:43;;;;;;;13.07;6.60;;;;;;;-1.61;85.36;98354.41;1776260;80;25190;-74
2021/01/29 07:35:38;;;;;;;8.23;5.17;;;;;;;-1.55;85.28;98354.95;1787476;79;25288;-75
2021/01/29 07:38:53;;;;;;;19.77;11.20;;;;;;;-1.42;85.36;98346.64;1800461;79;27059;-74
2021/01/29 07:41:45;;;;;;;18.47;10.23;;;;;;;-1.40;85.37;98352.55;1796710;79;25289;-73
2021/01/29 07:44:47;;;;;;;16.60;10.57;;;;;;;-1.35;85.23;98349.28;1783441;79;25282;-73
2021/01/29 07:47:47;;;;;;;17.43;11.17;;;;;;;-1.23;85.06;98338.34;1818468;78;26895;-73
2021/01/29 07:50:35;;;;;;;12.73;6.53;;;;;;;-1.29;85.12;98332.66;1789342;80;25655;-73
2021/01/29 07:53:14;;;;;;;16.93;9.33;;;;;;;-1.21;85.05;98336.52;1754160;81;25218;-74
2021/01/29 07:56:32;;;;;;;14.30;8.33;;;;;;;-1.12;85.14;98352.84;1767482;79;25285;-73
2021/01/29 07:59:19;;;;;;;12.90;7.80;;;;;;;-1.01;85.00;98354.04;1767422;80;25723;-74
2021/01/29 08:02:16;;;;;;;18.13;10.80;;;;;;;-0.90;84.40;98344.02;1799018;78;26800;-74
2021/01/29 08:05:15;;;;;;;17.70;11.20;;;;;;;-0.95;84.28;98348.58;1779930;79;25713;-73
2021/01/29 08:07:51;;;;;;;15.40;9.30;;;;;;;-0.87;83.93;98346.87;1765000;80;25650;-73
2021/01/29 08:10:33;;;;;;;17.90;11.43;;;;;;;-0.79;83.75;98348.17;1804209;78;26867;-74
2021/01/29 08:13:28;;;;;;;17.03;10.23;;;;;;;-0.86;83.69;98333.89;1762952;80;25236;-72
2021/01/29 08:16:49;;;;;;;12.90;6.40;;;;;;;-0.72;83.82;98321.58;1849939;76;27446;-73
2021/01/29 08:20:01;;;;;;;7.77;4.83;;;;;;;-0.75;83.62;98321.27;1784171;79;25758;-73
2021/01/29 08:23:00;;;;;;;5.67;3.80;;;;;;;-0.70;83.61;98317.59;1814234;78;25196;-73
2021/01/29 08:26:05;;;;;;;8.27;4.70;;;;;;;-0.55;81.37;98315.52;1817165;77;26906;-73
2021/01/29 08:29:06;;;;;;;9.40;6.47;;;;;;;-0.65;81.30;98312.59;1770278;80;25814;-74
2021/01/29 08:31:56;;;;;;;22.30;13.60;;;;;;;-0.61;81.49;98302.45;1769275;80;25368;-73
2021/01/29 08:35:19;;;;;;;17.10;9.97;;;;;;;-0.58;81.60;98301.01;1772041;79;25625;-74
2021/01/29 08:38:00;;;;;;;7.70;5.53;;;;;;;-0.51;81.35;98303.27;1728658;80;25614;-72
2021/01/29 08:40:32;;;;;;;12.70;6.80;;;;;;;-0.49;80.79;98310.47;1767676;80;25198;-74
2021/01/29 08:43:47;;;;;;;9.63;4.80;;;;;;;-0.50;80.87;98295.88;1775396;80;25716;-74
2021/01/29 08:46:38;;;;;;;6.80;4.83;;;;;;;-0.48;80.60;98297.95;1728047;80;25721;-73
2021/01/29 08:49:23;;;;;;;5.63;3.60;;;;;;;-0.51;80.25;98294.23;1757383;80;25223;-73
2021/01/29 08:52:03;;;;;;;6.63;4.57;;;;;;;-0.42;79.21;98298.45;1877093;75;26971;-74
2021/01/29 08:54:44;;;;;;;6.80;4.20;;;;;;;-0.50;78.84;98301.91;1826602;78;25196;-74
2021/01/29 08:57:43;;;;;;;6.10;4.10;;;;;;;-0.49;78.87;98298.38;1846068;77;25296;-74
2021/01/29 09:00:29;;;;;;;6.37;4.27;;;;;;;-0.42;78.63;98292.42;1829057;77;25322;-73
2021/01/29 09:03:20;;;;;;;41.93;16.70;;;;;;;-0.41;78.55;98282.48;1856219;77;25754;-73
2021/01/29 09:05:49;;;;;;;22.77;11.60;;;;;;;-0.43;78.27;98280.45;1860406;77;25194;-74
2021/01/29 09:08:22;;;;;;;4.70;3.40;;;;;;;-0.35;79.00;98278.72;1855027;77;25481;-75
2021/01/29 09:11:22;;;;;;;4.93;3.37;;;;;;;-0.29;78.22;98270.64;1849530;77;25308;-74
2021/01/29 09:14:04;;;;;;;5.33;3.30;;;;;;;-0.14;77.12;98269.79;1777787;80;26925;-73
2021/01/29 09:16:35;;;;;;;5.83;3.60;;;;;;;-0.21;77.49;98267.18;1747775;81;25630;-73
2021/01/29 09:19:14;;;;;;;4.13;3.33;;;;;;;-0.21;76.93;98268.00;1751886;80;25305;-73
2021/01/29 09:22:08;;;;;;;9.03;4.63;;;;;;;-0.29;77.23;98265.01;1703000;83;25777;-73
2021/01/29 09:24:59;;;;;;;9.17;5.20;;;;;;;-0.28;77.23;98269.73;1710923;83;25219;-74
2021/01/29 09:27:51;;;;;;;6.83;4.43;;;;;;;-0.21;77.03;98263.30;1644922;86;25337;-74
2021/01/29 09:30:29;;;;;;;9.57;5.37;;;;;;;-0.21;76.93;98255.55;1637945;87;25258;-74
2021/01/29 09:33:13;;;;;;;10.60;6.37;;;;;;;-0.26;76.69;98265.31;1644047;87;25949;-74
2021/01/29 09:35:52;;;;;;;7.57;4.83;;;;;;;-0.19;77.05;98260.17;1644074;87;25219;-74
2021/01/29 09:38:27;;;;;;;5.23;3.40;;;;;;;-0.08;76.27;98257.00;1652264;85;25235;-76
2021/01/29 09:41:16;;;;;;;6.07;4.13;;;;;;;-0.03;76.35;98248.06;1852853;76;26959;-75
2021/01/29 09:44:08;;;;;;;25.13;9.83;;;;;;;-0.13;76.65;98244.33;1785905;80;25318;-75
2021/01/29 09:46:39;;;;;;;25.60;11.00;;;;;;;-0.10;76.73;98244.61;1777807;79;25248;-75
2021/01/29 09:49:10;;;;;;;8.20;5.00;;;;;;;-0.10;76.78;98246.75;1748475;81;25299;-75
2021/01/29 09:52:08;;;;;;;6.40;4.73;;;;;;;-0.07;75.87;98232.80;1777748;80;25269;-78
2021/01/29 09:55:06;;;;;;;7.97;4.80;;;;;;;-0.24;75.86;98220.84;1757194;80;25274;-75
2021/01/29 09:57:51;;;;;;;6.27;4.67;;;;;;;-0.23;76.13;98227.68;1771253;79;25240;-75
2021/01/29 10:00:36;;;;;;;18.97;10.30;;;;;;;-0.23;76.52;98228.50;1785180;79;25308;-75
2021/01/29 10:03:30;;;;;;;7.53;5.33;;;;;;;-0.16;76.75;98221.70;1738807;81;25246;-76
2021/01/29 10:06:02;;;;;;;6.13;4.03;;;;;;;-0.08;76.49;98216.47;1756988;81;25706;-75
2021/01/29 10:08:41;;;;;;;8.73;4.80;;;;;;;-0.01;76.19;98206.15;1835895;75;27445;-76
2021/01/29 10:11:31;;;;;;;7.60;5.33;;;;;;;0.01;76.10;98198.78;1784020;78;25602;-76
2021/01/29 10:14:27;;;;;;;7.07;5.00;;;;;;;0.06;75.99;98197.58;1801522;77;25214;-77
2021/01/29 10:17:03;;;;;;;7.00;4.60;;;;;;;0.14;76.34;98191.98;1787472;79;25699;-77
2021/01/29 10:19:46;;;;;;;8.80;5.20;;;;;;;0.25;76.38;98184.88;1787659;79;25229;-77
2021/01/29 10:22:54;;;;;;;9.70;6.23;;;;;;;0.38;76.48;98187.59;1759330;77;25556;-76
2021/01/29 10:25:40;;;;;;;10.50;6.23;;;;;;;0.53;76.16;98187.50;1781163;79;25280;-76
2021/01/29 10:28:32;;;;;;;7.93;5.70;;;;;;;0.78;76.34;98182.15;1807055;78;26898;-75
2021/01/29 10:31:05;;;;;;;9.23;5.43;;;;;;;0.84;75.89;98182.23;1791826;79;25309;-75
2021/01/29 10:33:34;;;;;;;7.20;5.63;;;;;;;0.95;75.34;98183.70;1759640;80;25639;-69
2021/01/29 10:36:13;;;;;;;9.67;5.83;;;;;;;1.00;75.33;98179.55;1793260;79;25810;-68
2021/01/29 10:39:01;;;;;;;7.33;5.03;;;;;;;1.09;74.97;98169.93;1736175;81;25633;-69
2021/01/29 10:41:47;;;;;;;8.60;5.53;;;;;;;1.13;75.17;98165.39;1782963;79;25782;-70
2021/01/29 10:44:29;;;;;;;9.70;6.30;;;;;;;1.11;74.49;98166.30;1776862;79;25248;-67
2021/01/29 10:47:22;;;;;;;9.60;5.70;;;;;;;1.00;74.46;98158.83;1800678;78;25278;-69
2021/01/29 10:50:23;;;;;;;10.40;5.83;;;;;;;0.98;74.34;98160.22;1793421;79;25146;-68
2021/01/29 10:53:20;;;;;;;9.60;5.63;;;;;;;1.01;74.92;98154.03;1757269;80;25340;-69
2021/01/29 10:56:11;;;;;;;10.93;6.70;;;;;;;0.99;74.38;98159.31;1771363;80;25682;-68
2021/01/29 10:59:08;;;;;;;17.67;9.03;;;;;;;1.06;75.30;98154.58;1757614;81;25314;-69
2021/01/29 11:01:38;;;;;;;8.30;5.80;;;;;;;1.03;74.72;98146.52;1771412;80;25317;-68
2021/01/29 11:04:32;;;;;;;9.77;6.43;;;;;;;1.05;74.21;98139.48;1788069;80;25214;-70
2021/01/29 11:07:06;;;;;;;7.43;5.23;;;;;;;1.14;74.49;98135.95;1771852;80;25281;-69
2021/01/29 11:09:39;;;;;;;9.60;5.27;;;;;;;1.11;73.54;98136.52;1757868;80;25517;-68
2021/01/29 11:12:41;;;;;;;10.80;6.90;;;;;;;1.18;74.34;98137.44;1766835;80;25333;-68
2021/01/29 11:15:55;;;;;;;6.60;4.93;;;;;;;1.22;74.70;98135.02;1762950;80;25241;-69
2021/01/29 11:18:37;;;;;;;8.90;5.93;;;;;;;1.26;74.47;98136.50;1782576;80;25181;-68
2021/01/29 11:21:13;;;;;;;7.10;4.77;;;;;;;1.17;74.22;98132.70;1782166;80;25293;-68
2021/01/29 11:23:51;;;;;;;6.40;4.63;;;;;;;1.20;74.08;98129.10;1781330;80;25285;-69
2021/01/29 11:26:31;;;;;;;7.13;4.87;;;;;;;1.20;73.90;98129.92;1818354;78;26895;-68
2021/01/29 11:29:18;;;;;;;6.97;4.43;;;;;;;1.21;74.30;98128.19;1743272;80;25366;-69
2021/01/29 11:32:02;;;;;;;8.50;5.97;;;;;;;1.29;74.25;98125.91;1757920;80;25343;-69
2021/01/29 11:34:31;;;;;;;8.20;5.50;;;;;;;1.25;74.28;98122.69;1767391;79;25368;-67
2021/01/29 11:37:18;;;;;;;7.90;5.77;;;;;;;1.23;73.89;98121.97;1709870;82;25179;-68
2021/01/29 11:40:16;;;;;;;7.83;4.93;;;;;;;1.23;73.99;98114.67;1805104;79;27084;-68
2021/01/29 11:42:55;;;;;;;8.57;4.43;;;;;;;1.13;74.01;98118.77;1789625;79;25607;-68
2021/01/29 11:45:26;;;;;;;7.07;4.53;;;;;;;1.03;73.76;98112.86;1789305;80;25217;-68
2021/01/29 11:48:01;;;;;;;6.47;4.27;;;;;;;0.95;73.60;98110.39;1757712;80;25735;-68
2021/01/29 11:50:42;;;;;;;7.67;5.40;;;;;;;0.97;73.82;98105.47;1786356;79;25402;-69
2021/01/29 11:53:39;;;;;;;6.03;4.40;;;;;;;0.95;73.33;98096.98;1804955;77;26868;-68
2021/01/29 11:56:20;;;;;;;8.23;5.93;;;;;;;0.86;73.65;98102.75;1757415;81;25270;-68
2021/01/29 11:59:01;;;;;;;6.97;4.63;;;;;;;0.86;73.49;98096.27;1766530;80;25712;-67
2021/01/29 12:01:45;;;;;;;7.13;5.00;;;;;;;0.83;73.30;98092.11;1784395;79;25674;-67
2021/01/29 12:04:33;;;;;;;6.43;4.30;;;;;;;0.77;72.90;98090.36;1771755;79;25341;-69
2021/01/29 12:07:11;;;;;;;6.37;4.47;;;;;;;0.76;73.24;98092.60;1757369;81;25316;-69
2021/01/29 12:10:23;;;;;;;6.33;4.37;;;;;;;0.71;73.28;98074.29;1744775;80;25203;-70
2021/01/29 12:13:19;;;;;;;7.87;4.40;;;;;;;0.64;72.85;98078.20;1759824;80;25678;-67
2021/01/29 12:15:54;;;;;;;7.97;5.50;;;;;;;0.66;72.97;98076.81;1774655;80;25636;-68
2021/01/29 12:18:32;;;;;;;8.23;5.07;;;;;;;0.78;73.17;98071.33;1843107;76;26938;-67
2021/01/29 12:21:19;;;;;;;7.87;4.90;;;;;;;0.78;73.27;98067.45;1803460;77;25306;-67
2021/01/29 12:23:55;;;;;;;7.63;4.93;;;;;;;0.79;73.00;98062.18;1819692;77;25294;-69
2021/01/29 12:26:41;;;;;;;12.27;5.80;;;;;;;0.80;72.55;98056.06;1852890;76;26428;-69
2021/01/29 12:29:35;;;;;;;8.10;5.57;;;;;;;0.71;73.17;98056.17;1794498;78;25335;-69
2021/01/29 12:32:26;;;;;;;12.83;7.83;;;;;;;0.72;73.25;98054.41;1792477;80;25303;-69
2021/01/29 12:35:12;;;;;;;11.93;7.43;;;;;;;0.75;73.49;98043.88;1757598;80;25269;-69
2021/01/29 12:38:10;;;;;;;7.23;5.10;;;;;;;0.87;73.91;98034.06;1800834;78;27007;-69
2021/01/29 12:40:55;;;;;;;7.30;5.43;;;;;;;0.95;73.42;98028.84;1776566;79;25229;-69
2021/01/29 12:43:30;;;;;;;8.40;5.60;;;;;;;0.91;73.22;98030.81;1762695;79;25267;-69
2021/01/29 12:46:01;;;;;;;6.57;4.60;;;;;;;0.85;73.19;98018.25;1765056;80;25309;-69
2021/01/29 12:48:45;;;;;;;10.17;6.80;;;;;;;0.83;73.18;98009.28;1789538;79;25276;-68
2021/01/29 12:51:20;;;;;;;6.73;5.10;;;;;;;0.76;73.24;98005.43;1779601;80;25727;-68
2021/01/29 12:54:21;;;;;;;9.07;5.53;;;;;;;0.78;73.05;97998.87;1818395;78;26913;-68
2021/01/29 12:56:57;;;;;;;7.47;5.50;;;;;;;0.67;73.14;97986.15;1786610;79;25308;-68
2021/01/29 12:59:45;;;;;;;8.57;4.93;;;;;;;0.57;73.48;97991.54;1766207;79;25397;-68
2021/01/29 13:02:56;;;;;;;9.67;5.77;;;;;;;0.61;73.56;97994.29;1852894;77;27424;-69
2021/01/29 13:05:59;;;;;;;12.07;8.07;;;;;;;0.50;73.47;97985.07;1779987;80;25280;-69
2021/01/29 13:08:54;;;;;;;8.83;6.70;;;;;;;0.46;73.70;97983.14;1776543;79;25260;-68
2021/01/29 13:11:36;;;;;;;11.77;7.10;;;;;;;0.41;73.76;97979.20;1725568;83;25651;-69
2021/01/29 13:14:23;;;;;;;9.90;6.93;;;;;;;0.33;73.92;97980.48;1757236;81;25306;-69